This is the latest recevied weather packets stored in our database for station/object G4KVI. If no packets are shown the sender has not sent any weather packets the latest 10 day(s).
| Time | Temp. | Humidity | Pressure | Rain* | Wind** | Luminosity | Snow |
|---|---|---|---|---|---|---|---|
| 1788022506 | 21.67° C | 73% | 1003.6 hPa | 0 mm | - | 61 W/m² | - |
| 1788022206 | 22.78° C | 71% | 1003.7 hPa | 0 mm | - | 68 W/m² | - |
| 1788021906 | 22.22° C | 71% | 1003.5 hPa | 0 mm | - | 214 W/m² | - |
| 1788021606 | 22.78° C | 68% | 1003.5 hPa | 0 mm | - | 228 W/m² | - |
| 1788021306 | 22.78° C | 68% | 1003.6 hPa | 0 mm | - | 239 W/m² | - |
| 1788021006 | 22.22° C | 71% | 1003.4 hPa | 0 mm | - | 254 W/m² | - |
| 1788020706 | 22.22° C | 70% | 1003.3 hPa | 0 mm | - | 297 W/m² | - |
| 1788020406 | 22.22° C | 71% | 1003.3 hPa | 0 mm | - | 276 W/m² | - |
| 1788020106 | 22.22° C | 70% | 1003.4 hPa | 0 mm | - | 292 W/m² | - |
| 1788019806 | 22.22° C | 71% | 1003.1 hPa | 0 mm | - | 313 W/m² | - |
| 1788019506 | 21.67° C | 71% | 1003.1 hPa | 0 mm | - | 308 W/m² | - |
| 1788019206 | 21.67° C | 72% | 1003.2 hPa | 0 mm | - | 323 W/m² | - |
| 1788018906 | 21.67° C | 72% | 1003.1 hPa | 0 mm | - | 241 W/m² | - |
| 1788018606 | 22.22° C | 73% | 1003.2 hPa | 0 mm | - | 349 W/m² | - |
| 1788018306 | 21.67° C | 74% | 1003.3 hPa | 0 mm | - | 390 W/m² | - |
| 1788018006 | 21.67° C | 74% | 1003.1 hPa | 0 mm | - | 485 W/m² | - |
| 1788017706 | 21.67° C | 75% | 1003 hPa | 0 mm | - | 403 W/m² | - |
| 1788017406 | 21.67° C | 74% | 1003.1 hPa | 0 mm | - | 150 W/m² | - |
| 1788017106 | 22.22° C | 74% | 1003 hPa | 0 mm | - | 402 W/m² | - |
| 1788016806 | 21.67° C | 77% | 1002.9 hPa | 0 mm | - | 515 W/m² | - |
| 1788016506 | 21.67° C | 80% | 1003 hPa | 0 mm | - | 490 W/m² | - |
| 1788016206 | 21.11° C | 81% | 1002.7 hPa | 0 mm | - | 267 W/m² | - |
| 1788015906 | 21.11° C | 80% | 1002.6 hPa | 0 mm | - | 341 W/m² | - |
| 1788015606 | 21.11° C | 80% | 1002.5 hPa | 0 mm | - | 228 W/m² | - |
| 1788015306 | 21.11° C | 79% | 1002.7 hPa | 0 mm | - | 309 W/m² | - |
* Rain latest hour (hover to see other rain measurements)
** Current wind speed in m/s (hover to see current wind gust speed)